createdAt,value
2023-03-10T00:02:01.697Z,97459.50
2023-03-10T00:07:05.274Z,97470.00
2023-03-10T00:12:10.900Z,97479.56
2023-03-10T00:17:14.440Z,97485.63
2023-03-10T00:22:17.882Z,97495.16
2023-03-10T00:27:22.799Z,97499.56
2023-03-10T00:32:26.529Z,97490.19
2023-03-10T00:37:29.964Z,97518.28
2023-03-10T00:42:35.007Z,97500.25
2023-03-10T00:47:38.607Z,97513.13
2023-03-10T00:52:42.082Z,97518.28
2023-03-10T00:57:46.838Z,97525.94
2023-03-10T01:02:51.719Z,97517.53
2023-03-10T01:07:55.369Z,97517.38
2023-03-10T01:13:00.288Z,97516.44
2023-03-10T01:18:05.229Z,97507.03
2023-03-10T01:23:08.790Z,97507.78
2023-03-10T01:28:13.899Z,97507.81
2023-03-10T01:33:18.928Z,97505.09
2023-03-10T01:38:22.556Z,97508.34
2023-03-10T01:43:37.474Z,97518.41
2023-03-10T01:48:40.795Z,97520.06
2023-03-10T01:53:44.821Z,97528.22
2023-03-10T01:58:51.044Z,97542.56
2023-03-10T02:03:58.556Z,97538.97
2023-03-10T02:09:05.464Z,97541.53
2023-03-10T02:14:10.517Z,97550.59
2023-03-10T02:19:28.082Z,97564.81
2023-03-10T02:24:40.018Z,97565.47
2023-03-10T02:29:58.884Z,97567.72
2023-03-10T02:35:03.218Z,97571.03
2023-03-10T02:40:32.390Z,97584.19
2023-03-10T02:45:40.713Z,97588.38
2023-03-10T02:50:48.253Z,97591.53
2023-03-10T02:55:52.185Z,97592.38
2023-03-10T03:00:57.970Z,97594.66
2023-03-10T03:06:01.973Z,97608.09
2023-03-10T03:11:06.076Z,97612.31
2023-03-10T03:16:12.474Z,97611.19
2023-03-10T03:21:17.803Z,97616.47
2023-03-10T03:26:23.881Z,97623.31
2023-03-10T03:31:28.890Z,97620.56
2023-03-10T03:36:32.511Z,97596.31
2023-03-10T03:41:36.256Z,97609.81
2023-03-10T03:46:41.132Z,97627.69
2023-03-10T03:51:44.634Z,97631.78
2023-03-10T03:56:47.996Z,97642.50
2023-03-10T04:01:52.765Z,97647.38
2023-03-10T04:06:56.500Z,97646.22
2023-03-10T04:12:00.148Z,97654.59
2023-03-10T04:17:05.759Z,97659.56
2023-03-10T04:22:09.205Z,97678.19
2023-03-10T04:27:12.587Z,97675.41
2023-03-10T04:32:17.490Z,97691.75
2023-03-10T04:37:22.151Z,97683.38
2023-03-10T04:42:26.838Z,97688.88
2023-03-10T04:47:31.780Z,97707.50
2023-03-10T04:52:35.242Z,97711.94
2023-03-10T04:57:38.768Z,97695.81
2023-03-10T05:02:43.581Z,97718.28
2023-03-10T05:07:46.960Z,97727.75
2023-03-10T05:12:50.394Z,97740.69
2023-03-10T05:17:55.199Z,97751.38
2023-03-10T05:22:58.562Z,97762.03
2023-03-10T05:28:02.047Z,97763.84
2023-03-10T05:33:06.944Z,97763.47
2023-03-10T05:38:10.750Z,97764.09
2023-03-10T05:43:16.616Z,97783.47
2023-03-10T05:48:22.323Z,97789.09
2023-03-10T05:53:25.687Z,97800.81
2023-03-10T05:58:29.237Z,97798.25
2023-03-10T06:03:34.873Z,97808.97
2023-03-10T06:08:38.585Z,97797.84
2023-03-10T06:13:42.110Z,97818.41
2023-03-10T06:18:47.066Z,97814.16
2023-03-10T06:23:50.315Z,97815.88
2023-03-10T06:28:53.730Z,97841.63
2023-03-10T06:33:59.546Z,97836.63
2023-03-10T06:39:02.963Z,97840.53
2023-03-10T06:44:06.708Z,97849.81
2023-03-10T06:49:11.844Z,97854.31
2023-03-10T06:54:15.349Z,97842.66
2023-03-10T06:59:19.340Z,97852.50
2023-03-10T07:04:24.183Z,97860.22
2023-03-10T07:09:29.071Z,97866.53
2023-03-10T07:14:32.874Z,97871.97
2023-03-10T07:19:38.361Z,97883.91
2023-03-10T07:24:41.960Z,97883.28
2023-03-10T07:29:45.413Z,97895.84
2023-03-10T07:34:52.689Z,97896.47
2023-03-10T07:39:56.212Z,97895.75
2023-03-10T07:44:59.615Z,97907.50
2023-03-10T07:50:04.640Z,97905.13
2023-03-10T07:55:08.829Z,97902.81
2023-03-10T08:00:13.777Z,97911.56
2023-03-10T08:05:18.413Z,97915.09
2023-03-10T08:10:21.952Z,97927.94
2023-03-10T08:15:26.502Z,97929.00
2023-03-10T08:20:32.374Z,97938.50
2023-03-10T08:25:35.942Z,97945.81
2023-03-10T08:30:56.917Z,97955.53
2023-03-10T08:36:12.765Z,97955.72
2023-03-10T08:41:19.255Z,97971.00
2023-03-10T08:46:24.915Z,97974.53
2023-03-10T08:51:30.729Z,97965.06
2023-03-10T08:56:34.297Z,97967.78
2023-03-10T09:01:39.173Z,97977.16
2023-03-10T09:06:44.020Z,97994.00
2023-03-10T09:11:47.521Z,97990.06
2023-03-10T09:16:51.009Z,97990.88
2023-03-10T09:21:57.796Z,97980.38
2023-03-10T09:27:01.222Z,98000.44
2023-03-10T09:32:06.562Z,97997.31
2023-03-10T09:37:12.437Z,97994.22
2023-03-10T09:42:37.415Z,98011.69
2023-03-10T09:47:51.253Z,98008.72
2023-03-10T09:53:03.075Z,98023.16
2023-03-10T09:58:07.047Z,98021.41
2023-03-10T10:03:18.790Z,98003.00
2023-03-10T10:08:29.116Z,98024.81
2023-03-10T10:13:35.718Z,98023.25
2023-03-10T10:18:43.129Z,98027.53
2023-03-10T10:23:50.828Z,98034.41
2023-03-10T10:28:57.049Z,98040.06
2023-03-10T10:34:02.228Z,98045.47
2023-03-10T10:39:27.992Z,98051.28
2023-03-10T10:44:41.808Z,98048.25
2023-03-10T10:49:45.276Z,98071.25
2023-03-10T10:54:57.023Z,98066.84
2023-03-10T11:00:18.646Z,98076.56
2023-03-10T11:05:24.845Z,98074.69
2023-03-10T11:10:34.266Z,98080.94
2023-03-10T11:15:49.050Z,98088.19
2023-03-10T11:21:00.543Z,98093.41
2023-03-10T11:26:13.016Z,98099.91
2023-03-10T11:31:30.829Z,98109.00
2023-03-10T11:36:55.136Z,98108.50
2023-03-10T11:42:04.475Z,98113.59
2023-03-10T11:47:19.128Z,98122.59
2023-03-10T11:52:26.468Z,98128.94
2023-03-10T11:57:37.985Z,98133.28
2023-03-10T12:02:49.718Z,98144.06
2023-03-10T12:07:55.918Z,98139.13
2023-03-10T12:13:02.277Z,98154.63
2023-03-10T12:18:07.203Z,98168.97
2023-03-10T12:23:42.042Z,98176.53
2023-03-10T12:28:46.970Z,98180.81
2023-03-10T12:33:53.734Z,98184.72
2023-03-10T12:38:58.187Z,98175.50
2023-03-10T12:44:04.237Z,98188.03
2023-03-10T12:49:33.899Z,98192.22
2023-03-10T12:54:49.720Z,98195.88
2023-03-10T13:00:03.103Z,98190.88
2023-03-10T13:05:19.430Z,98205.66
2023-03-10T13:10:30.168Z,98210.53
2023-03-10T13:15:35.580Z,98224.44
2023-03-10T13:20:39.835Z,98226.06
2023-03-10T13:25:53.073Z,98223.91
2023-03-10T13:31:11.476Z,98236.41
2023-03-10T13:36:35.039Z,98229.03
2023-03-10T13:41:42.295Z,98247.31
2023-03-10T13:46:52.001Z,98239.19
2023-03-10T13:51:57.052Z,98248.22
2023-03-10T13:57:17.867Z,98243.50
2023-03-10T14:02:28.359Z,98254.09
2023-03-10T14:07:33.333Z,98266.94
2023-03-10T14:12:38.770Z,98275.84
2023-03-10T14:17:46.837Z,98276.34
2023-03-10T14:22:50.259Z,98280.41
2023-03-10T14:28:00.381Z,98287.00
2023-03-10T14:33:12.902Z,98271.34
2023-03-10T14:38:16.579Z,98283.06
2023-03-10T14:43:23.003Z,98293.06
2023-03-10T14:48:29.709Z,98285.50
2023-03-10T14:53:33.685Z,98308.84
2023-03-10T14:58:45.229Z,98306.47
2023-03-10T15:03:50.608Z,98319.84
2023-03-10T15:08:54.424Z,98331.28
2023-03-10T15:13:58.316Z,98342.69
2023-03-10T15:19:03.190Z,98351.41
2023-03-10T15:24:07.949Z,98359.38
2023-03-10T15:29:14.470Z,98361.59
2023-03-10T15:34:20.642Z,98363.59
2023-03-10T15:39:31.521Z,98385.31
2023-03-10T15:44:36.309Z,98386.41
2023-03-10T15:49:41.731Z,98381.78
2023-03-10T15:54:45.174Z,98409.69
2023-03-10T15:59:48.846Z,98418.13
2023-03-10T16:04:53.930Z,98413.00
2023-03-10T16:09:59.816Z,98413.69
2023-03-10T16:15:03.630Z,98420.94
2023-03-10T16:20:12.376Z,98421.53
2023-03-10T16:25:17.956Z,98420.47
2023-03-10T16:30:22.504Z,98421.78
2023-03-10T16:35:27.425Z,98417.88
2023-03-10T16:40:30.977Z,98440.50
2023-03-10T16:45:34.757Z,98434.94
2023-03-10T16:50:39.566Z,98430.53
2023-03-10T16:55:42.785Z,98393.66
2023-03-10T17:00:46.222Z,98439.13
2023-03-10T17:05:54.020Z,98429.78
2023-03-10T17:10:57.480Z,98436.28
2023-03-10T17:16:01.682Z,98445.41
2023-03-10T17:21:14.125Z,98446.34
2023-03-10T17:26:17.961Z,98443.69
2023-03-10T17:31:23.864Z,98438.53
2023-03-10T17:36:29.597Z,98433.94
2023-03-10T17:41:34.402Z,98441.66
2023-03-10T17:46:37.949Z,98445.66
2023-03-10T17:51:44.623Z,98450.81
2023-03-10T17:56:48.640Z,98450.72
2023-03-10T18:01:52.330Z,98452.97
2023-03-10T18:06:57.443Z,98464.06
2023-03-10T18:12:01.107Z,98469.13
2023-03-10T18:17:04.587Z,98467.25
2023-03-10T18:22:09.634Z,98476.59
2023-03-10T18:27:13.105Z,98472.78
2023-03-10T18:32:16.518Z,98481.16
2023-03-10T18:37:21.622Z,98476.84
2023-03-10T18:42:26.693Z,98488.63
2023-03-10T18:47:30.259Z,98489.44
2023-03-10T18:52:35.115Z,98485.22
2023-03-10T18:57:38.905Z,98498.16
2023-03-10T19:02:42.439Z,98494.84
2023-03-10T19:07:47.713Z,98484.06
2023-03-10T19:12:51.342Z,98488.34
2023-03-10T19:17:54.831Z,98477.72
2023-03-10T19:22:59.857Z,98479.22
2023-03-10T19:28:03.405Z,98493.78
2023-03-10T19:33:06.940Z,98488.59
2023-03-10T19:38:11.957Z,98510.81
2023-03-10T19:43:15.514Z,98507.03
2023-03-10T19:48:18.950Z,98502.28
2023-03-10T19:53:24.098Z,98511.41
2023-03-10T19:58:28.260Z,98519.56
2023-03-10T20:03:34.306Z,98505.47
2023-03-10T20:08:39.353Z,98502.13
2023-03-10T20:13:44.372Z,98516.53
2023-03-10T20:18:47.772Z,98517.56
2023-03-10T20:23:55.445Z,98517.06
2023-03-10T20:29:01.462Z,98522.81
2023-03-10T20:34:07.061Z,98538.78
2023-03-10T20:39:12.089Z,98532.56
2023-03-10T20:44:15.874Z,98542.31
2023-03-10T20:49:19.326Z,98552.44
2023-03-10T20:54:24.302Z,98557.78
2023-03-10T20:59:27.704Z,98558.47
2023-03-10T21:04:31.113Z,98571.75
2023-03-10T21:09:36.069Z,98567.28
2023-03-10T21:14:39.561Z,98571.34
2023-03-10T21:19:43.032Z,98580.75
2023-03-10T21:24:47.937Z,98569.31
2023-03-10T21:29:51.722Z,98580.97
2023-03-10T21:34:55.312Z,98568.44
2023-03-10T21:40:00.163Z,98588.38
2023-03-10T21:45:03.968Z,98591.72
2023-03-10T21:50:08.806Z,98596.94
2023-03-10T21:55:19.714Z,98587.66
2023-03-10T22:00:24.755Z,98589.56
2023-03-10T22:05:28.203Z,98588.19
2023-03-10T22:10:33.121Z,98595.34
2023-03-10T22:15:36.664Z,98600.91
2023-03-10T22:20:40.172Z,98594.84
2023-03-10T22:25:44.964Z,98587.75
2023-03-10T22:30:48.461Z,98599.13
2023-03-10T22:35:52.797Z,98591.09
2023-03-10T22:40:57.864Z,98603.44
2023-03-10T22:46:08.838Z,98607.78
2023-03-10T22:51:18.307Z,98605.34
2023-03-10T22:56:23.131Z,98613.41
2023-03-10T23:01:26.714Z,98611.28
2023-03-10T23:06:30.291Z,98605.78
2023-03-10T23:11:35.171Z,98606.28
2023-03-10T23:16:38.811Z,98600.41
2023-03-10T23:21:42.240Z,98593.34
2023-03-10T23:26:47.003Z,98592.00
2023-03-10T23:31:50.243Z,98593.13
2023-03-10T23:36:55.983Z,98587.22
2023-03-10T23:42:00.756Z,98572.31
2023-03-10T23:47:04.327Z,98582.25
2023-03-10T23:52:08.277Z,98577.50
2023-03-10T23:57:13.281Z,98554.44
